createdAt,value
2018-02-27T00:01:21.300Z,6.50
2018-02-27T00:03:53.687Z,9.00
2018-02-27T00:06:26.974Z,9.00
2018-02-27T00:08:58.785Z,8.00
2018-02-27T00:11:32.084Z,4.00
2018-02-27T00:14:04.325Z,7.50
2018-02-27T00:16:36.323Z,8.00
2018-02-27T00:19:07.815Z,6.50
2018-02-27T00:21:39.364Z,6.00
2018-02-27T00:24:14.238Z,5.00
2018-02-27T00:26:45.692Z,6.00
2018-02-27T00:29:17.603Z,6.00
2018-02-27T00:31:50.520Z,4.50
2018-02-27T00:34:22.052Z,6.50
2018-02-27T00:36:53.419Z,5.50
2018-02-27T00:39:24.934Z,4.00
2018-02-27T00:41:56.437Z,5.50
2018-02-27T00:44:28.094Z,6.00
2018-02-27T00:46:59.690Z,4.00
2018-02-27T00:49:31.516Z,4.00
2018-02-27T00:52:03.970Z,5.50
2018-02-27T00:54:35.241Z,6.00
2018-02-27T00:57:12.265Z,5.50
2018-02-27T00:59:43.688Z,4.50
2018-02-27T01:02:15.856Z,7.50
2018-02-27T01:04:47.791Z,5.00
2018-02-27T01:07:19.650Z,4.00
2018-02-27T01:09:51.066Z,8.50
2018-02-27T01:12:33.945Z,7.00
2018-02-27T01:15:09.311Z,6.00
2018-02-27T01:17:46.123Z,4.00
2018-02-27T01:20:20.620Z,10.50
2018-02-27T01:22:55.001Z,6.00
2018-02-27T01:25:33.467Z,8.00
2018-02-27T01:28:05.458Z,5.00
2018-02-27T01:30:43.760Z,8.50
2018-02-27T01:33:15.476Z,8.00
2018-02-27T01:35:47.340Z,5.50
2018-02-27T01:38:18.962Z,7.00
2018-02-27T01:40:58.283Z,6.50
2018-02-27T01:43:37.354Z,10.00
2018-02-27T01:46:09.117Z,9.50
2018-02-27T01:48:42.222Z,6.50
2018-02-27T01:51:17.263Z,8.00
2018-02-27T01:53:48.647Z,4.50
2018-02-27T01:56:21.810Z,6.00
2018-02-27T01:58:54.216Z,10.50
2018-02-27T02:01:26.312Z,8.00
2018-02-27T02:03:58.986Z,4.50
2018-02-27T02:06:33.970Z,7.00
2018-02-27T02:09:06.715Z,8.00
2018-02-27T02:11:47.467Z,8.00
2018-02-27T02:14:19.729Z,8.00
2018-02-27T02:16:52.991Z,9.00
2018-02-27T02:19:27.464Z,8.50
2018-02-27T02:22:00.024Z,7.50
2018-02-27T02:25:22.060Z,9.00
2018-02-27T02:27:54.044Z,8.00
2018-02-27T02:30:25.910Z,6.00
2018-02-27T02:32:57.421Z,4.50
2018-02-27T02:35:39.007Z,6.00
2018-02-27T02:38:11.428Z,10.00
2018-02-27T02:40:42.884Z,6.50
2018-02-27T02:43:16.818Z,8.00
2018-02-27T02:45:48.694Z,8.00
2018-02-27T02:48:20.087Z,9.00
2018-02-27T02:50:51.682Z,8.50
2018-02-27T02:53:23.674Z,6.00
2018-02-27T02:55:55.323Z,10.50
2018-02-27T02:58:27.102Z,8.50
2018-02-27T03:00:59.462Z,8.00
2018-02-27T03:03:30.750Z,8.00
2018-02-27T03:06:02.594Z,10.00
2018-02-27T03:08:44.656Z,8.00
2018-02-27T03:11:16.885Z,8.50
2018-02-27T03:13:49.042Z,7.50
2018-02-27T03:16:22.918Z,6.00
2018-02-27T03:18:53.800Z,7.00
2018-02-27T03:21:25.003Z,8.00
2018-02-27T03:23:56.891Z,8.50
2018-02-27T03:26:31.486Z,6.50
2018-02-27T03:29:03.070Z,8.50
2018-02-27T03:31:39.043Z,10.00
2018-02-27T03:34:10.665Z,8.00
2018-02-27T03:36:41.869Z,7.50
2018-02-27T03:39:18.548Z,9.50
2018-02-27T03:41:49.530Z,6.50
2018-02-27T03:44:20.487Z,8.50
2018-02-27T03:46:51.604Z,9.00
2018-02-27T03:49:23.712Z,10.00
2018-02-27T03:51:54.872Z,8.50
2018-02-27T03:54:32.444Z,8.00
2018-02-27T03:57:03.741Z,10.00
2018-02-27T03:59:37.591Z,9.00
2018-02-27T04:02:12.225Z,8.00
2018-02-27T04:04:46.152Z,9.00
2018-02-27T04:07:17.947Z,8.50
2018-02-27T04:09:49.224Z,10.00
2018-02-27T04:12:20.655Z,9.50
2018-02-27T04:14:52.163Z,8.00
2018-02-27T04:17:24.453Z,10.50
2018-02-27T04:19:55.743Z,10.00
2018-02-27T04:22:27.597Z,8.00
2018-02-27T04:25:00.674Z,12.00
2018-02-27T04:27:32.573Z,10.50
2018-02-27T04:30:06.515Z,9.00
2018-02-27T04:32:38.366Z,10.00
2018-02-27T04:35:10.551Z,10.00
2018-02-27T04:37:52.684Z,7.00
2018-02-27T04:40:24.733Z,8.00
2018-02-27T04:42:57.108Z,8.00
2018-02-27T04:45:28.566Z,9.50
2018-02-27T04:48:00.521Z,9.00
2018-02-27T04:50:32.750Z,7.50
2018-02-27T04:53:04.599Z,8.00
2018-02-27T04:55:36.150Z,8.00
2018-02-27T04:58:14.491Z,7.00
2018-02-27T05:00:46.523Z,9.50
2018-02-27T05:03:17.746Z,9.50
2018-02-27T05:05:49.255Z,9.50
2018-02-27T05:08:20.834Z,10.50
2018-02-27T05:10:52.039Z,6.50
2018-02-27T05:13:23.067Z,6.50
2018-02-27T05:15:55.108Z,5.50
2018-02-27T05:18:26.400Z,8.50
2018-02-27T05:20:58.008Z,4.00
2018-02-27T05:23:29.738Z,6.00
2018-02-27T05:26:01.116Z,8.00
2018-02-27T05:28:37.582Z,9.00
2018-02-27T05:31:09.209Z,7.50
2018-02-27T05:33:42.728Z,9.00
2018-02-27T05:36:16.396Z,6.00
2018-02-27T05:38:56.548Z,7.00
2018-02-27T05:41:29.875Z,8.00
2018-02-27T05:44:04.377Z,7.50
2018-02-27T05:46:36.398Z,7.50
2018-02-27T05:49:08.165Z,3.50
2018-02-27T05:51:40.121Z,4.50
2018-02-27T05:54:11.738Z,5.00
2018-02-27T05:56:48.995Z,7.50
2018-02-27T05:59:22.496Z,6.00
2018-02-27T06:02:00.140Z,8.00
2018-02-27T06:04:32.613Z,8.50
2018-02-27T06:07:12.390Z,6.00
2018-02-27T06:10:15.708Z,6.00
2018-02-27T06:12:48.463Z,6.00
2018-02-27T06:15:22.920Z,4.00
2018-02-27T06:18:01.516Z,5.50
2018-02-27T06:20:36.310Z,7.50
2018-02-27T06:23:08.338Z,7.00
2018-02-27T06:25:40.948Z,4.00
2018-02-27T06:28:12.707Z,6.00
2018-02-27T06:31:16.585Z,6.00
2018-02-27T06:33:49.047Z,7.00
2018-02-27T06:36:20.710Z,8.50
2018-02-27T06:38:54.108Z,8.00
2018-02-27T06:41:25.636Z,6.50
2018-02-27T06:43:59.364Z,7.00
2018-02-27T06:46:31.704Z,8.00
2018-02-27T06:49:06.199Z,4.00
2018-02-27T06:51:50.414Z,9.50
2018-02-27T06:54:22.717Z,4.50
2018-02-27T06:56:56.577Z,9.50
2018-02-27T06:59:29.244Z,9.50
2018-02-27T07:02:02.006Z,5.00
2018-02-27T07:04:33.815Z,7.00
2018-02-27T07:07:05.683Z,5.50
2018-02-27T07:09:39.092Z,8.50
2018-02-27T07:12:10.469Z,6.50
2018-02-27T07:15:25.695Z,6.00
2018-02-27T07:17:58.527Z,6.00
2018-02-27T07:20:31.041Z,5.00
2018-02-27T07:23:03.531Z,8.50
2018-02-27T07:25:35.480Z,8.00
2018-02-27T07:28:08.586Z,8.00
2018-02-27T07:30:41.152Z,9.00
2018-02-27T07:33:15.469Z,7.00
2018-02-27T07:35:51.723Z,8.00
2018-02-27T07:38:23.907Z,9.00
2018-02-27T07:40:56.140Z,7.50
2018-02-27T07:43:28.792Z,8.00
2018-02-27T07:46:04.364Z,8.50
2018-02-27T07:48:38.805Z,9.00
2018-02-27T07:51:10.991Z,9.50
2018-02-27T07:53:44.684Z,7.50
2018-02-27T07:59:00.725Z,8.00
2018-02-27T08:01:33.601Z,4.00
2018-02-27T08:04:05.463Z,7.50
2018-02-27T08:06:39.540Z,8.50
2018-02-27T08:09:10.883Z,5.50
2018-02-27T08:11:44.571Z,10.00
2018-02-27T08:14:25.800Z,8.50
2018-02-27T08:17:11.482Z,6.00
2018-02-27T08:19:55.936Z,10.00
2018-02-27T08:22:28.261Z,6.50
2018-02-27T08:24:59.577Z,9.50
2018-02-27T08:27:31.213Z,6.50
2018-02-27T08:30:06.942Z,7.50
2018-02-27T08:32:40.833Z,7.00
2018-02-27T08:35:23.779Z,12.00
2018-02-27T08:37:59.252Z,5.00
2018-02-27T08:40:32.938Z,8.50
2018-02-27T08:43:07.861Z,8.00
2018-02-27T08:45:43.701Z,9.50
2018-02-27T08:48:19.268Z,7.50
2018-02-27T08:51:03.682Z,7.00
2018-02-27T08:53:37.152Z,8.00
2018-02-27T08:56:09.206Z,7.50
2018-02-27T08:58:40.553Z,9.50
2018-02-27T09:01:12.825Z,6.00
2018-02-27T09:03:45.658Z,10.00
2018-02-27T09:06:17.870Z,10.00
2018-02-27T09:11:33.607Z,8.00
2018-02-27T09:14:08.129Z,7.50
2018-02-27T09:19:59.207Z,7.50
2018-02-27T09:22:30.479Z,5.00
2018-02-27T09:25:02.676Z,6.00
2018-02-27T09:28:23.920Z,6.00
2018-02-27T09:30:57.174Z,4.50
2018-02-27T09:33:29.157Z,7.75
2018-02-27T09:36:00.484Z,5.50
2018-02-27T09:38:32.162Z,5.75
2018-02-27T09:41:05.953Z,7.75
2018-02-27T09:43:42.339Z,5.75
2018-02-27T09:46:14.787Z,5.75
2018-02-27T09:51:26.226Z,5.00
2018-02-27T09:54:01.633Z,6.00
2018-02-27T09:56:33.496Z,5.75
2018-02-27T09:59:05.736Z,5.75
2018-02-27T10:01:38.360Z,7.75
2018-02-27T10:04:12.926Z,5.75
2018-02-27T10:06:46.562Z,6.25
2018-02-27T10:09:18.812Z,3.50
2018-02-27T10:11:50.250Z,4.75
2018-02-27T10:14:27.462Z,7.75
2018-02-27T10:16:59.165Z,4.25
2018-02-27T10:19:31.027Z,8.75
2018-02-27T10:22:15.919Z,2.50
2018-02-27T10:24:46.994Z,4.00
2018-02-27T10:27:19.473Z,6.00
2018-02-27T10:29:53.880Z,7.75
2018-02-27T10:32:25.963Z,5.50
2018-02-27T10:35:08.484Z,5.75
2018-02-27T10:37:39.822Z,5.50
2018-02-27T10:40:11.103Z,2.00
2018-02-27T10:42:58.017Z,6.00
2018-02-27T10:45:35.429Z,5.75
2018-02-27T10:48:17.312Z,5.75
2018-02-27T10:51:11.023Z,7.00
2018-02-27T10:53:52.810Z,3.00
2018-02-27T10:56:30.876Z,5.00
2018-02-27T10:59:05.776Z,6.25
2018-02-27T11:01:59.802Z,3.00
2018-02-27T11:04:36.440Z,5.75
2018-02-27T11:07:16.646Z,2.75
2018-02-27T11:09:50.759Z,3.75
2018-02-27T11:12:27.877Z,5.50
2018-02-27T11:15:07.362Z,1.75
2018-02-27T11:17:39.673Z,3.75
2018-02-27T11:20:10.884Z,3.75
2018-02-27T11:22:48.001Z,3.00
2018-02-27T11:25:19.171Z,3.00
2018-02-27T11:28:03.136Z,4.25
2018-02-27T11:30:39.906Z,3.75
2018-02-27T11:33:18.626Z,3.75
2018-02-27T11:35:56.567Z,3.75
2018-02-27T11:38:32.775Z,5.25
2018-02-27T11:41:05.968Z,5.00
2018-02-27T11:43:50.117Z,3.00
2018-02-27T11:46:26.982Z,4.75
2018-02-27T11:49:09.084Z,7.25
2018-02-27T11:51:45.924Z,5.75
2018-02-27T11:54:19.544Z,3.75
2018-02-27T11:57:04.745Z,3.75
2018-02-27T11:59:41.574Z,3.75
2018-02-27T12:04:52.328Z,3.75
2018-02-27T12:07:24.202Z,3.75
2018-02-27T12:10:02.980Z,3.75
2018-02-27T12:12:35.294Z,5.75
2018-02-27T12:15:19.213Z,3.00
2018-02-27T12:17:55.920Z,2.75
2018-02-27T12:20:29.437Z,5.75
2018-02-27T12:23:02.924Z,3.00
2018-02-27T12:25:34.084Z,1.00
2018-02-27T12:28:11.436Z,7.00
2018-02-27T12:30:54.434Z,3.00
2018-02-27T12:33:30.436Z,3.00
2018-02-27T12:36:04.249Z,3.00
2018-02-27T12:38:44.571Z,5.00
2018-02-27T12:41:15.680Z,3.75
2018-02-27T12:46:52.357Z,7.75
2018-02-27T12:49:29.055Z,4.75
2018-02-27T12:52:19.658Z,3.75
2018-02-27T12:56:00.729Z,5.00
2018-02-27T12:58:37.548Z,5.25
2018-02-27T13:01:10.777Z,3.00
2018-02-27T13:03:43.647Z,3.00
2018-02-27T13:06:15.430Z,5.00
2018-02-27T13:08:47.305Z,5.00
2018-02-27T13:11:18.430Z,6.50
2018-02-27T13:16:54.630Z,5.50
2018-02-27T13:19:28.198Z,5.00
2018-02-27T13:22:00.774Z,5.00
2018-02-27T13:24:32.093Z,5.00
2018-02-27T13:27:05.545Z,3.50
2018-02-27T13:29:39.086Z,4.50
2018-02-27T13:32:11.823Z,5.00
2018-02-27T13:34:45.810Z,5.00
2018-02-27T13:37:17.512Z,3.50
2018-02-27T13:39:49.094Z,4.50
2018-02-27T13:45:16.192Z,5.00
2018-02-27T13:47:49.837Z,6.50
2018-02-27T13:50:26.036Z,5.50
2018-02-27T13:53:01.184Z,6.50
2018-02-27T13:55:35.823Z,7.00
2018-02-27T13:58:08.703Z,5.00
2018-02-27T14:00:40.429Z,5.00
2018-02-27T14:03:12.616Z,4.00
2018-02-27T14:05:44.500Z,3.50
2018-02-27T14:08:17.032Z,5.00
2018-02-27T14:10:48.459Z,3.00
2018-02-27T14:13:20.840Z,3.00
2018-02-27T14:16:09.677Z,6.25
2018-02-27T14:18:45.819Z,5.75
2018-02-27T14:21:17.372Z,5.25
2018-02-27T14:23:57.681Z,5.00
2018-02-27T14:26:28.832Z,9.75
2018-02-27T14:29:00.385Z,14.25
2018-02-27T14:31:31.669Z,13.75
2018-02-27T14:34:04.808Z,13.75
2018-02-27T14:36:52.099Z,9.75
2018-02-27T14:39:24.284Z,10.50
2018-02-27T14:42:02.262Z,10.00
2018-02-27T14:44:34.356Z,9.75
2018-02-27T14:47:24.621Z,10.00
2018-02-27T14:50:01.507Z,12.50
2018-02-27T14:52:35.538Z,11.75
2018-02-27T14:55:07.154Z,13.75
2018-02-27T14:57:45.143Z,11.50
2018-02-27T15:00:28.765Z,11.50
2018-02-27T15:03:13.331Z,10.00
2018-02-27T15:05:49.507Z,7.00
2018-02-27T15:08:32.010Z,12.50
2018-02-27T15:11:06.121Z,11.00
2018-02-27T15:13:58.463Z,14.00
2018-02-27T15:16:30.366Z,12.50
2018-02-27T15:19:02.935Z,10.00
2018-02-27T15:21:37.960Z,10.00
2018-02-27T15:24:14.511Z,8.50
2018-02-27T15:26:48.561Z,12.00
2018-02-27T15:29:27.650Z,12.50
2018-02-27T15:32:03.973Z,10.00
2018-02-27T15:34:48.581Z,8.50
2018-02-27T15:37:38.793Z,10.00
2018-02-27T15:40:13.587Z,10.50
2018-02-27T15:42:47.154Z,10.00
2018-02-27T15:45:28.872Z,10.00
2018-02-27T15:48:06.144Z,12.00
2018-02-27T15:50:42.529Z,10.50
2018-02-27T15:53:34.846Z,8.00
2018-02-27T15:58:58.936Z,6.00
2018-02-27T16:01:34.407Z,8.00
2018-02-27T16:04:08.019Z,9.00
2018-02-27T16:06:49.430Z,7.00
2018-02-27T16:09:22.697Z,8.50
2018-02-27T16:11:57.813Z,10.00
2018-02-27T16:14:43.307Z,9.00
2018-02-27T16:17:22.200Z,11.00
2018-02-27T16:19:56.769Z,9.00
2018-02-27T16:22:29.044Z,8.00
2018-02-27T16:25:28.828Z,6.00
2018-02-27T16:30:29.987Z,4.50
2018-02-27T16:34:40.187Z,7.50
2018-02-27T16:37:14.479Z,8.00
2018-02-27T16:40:06.716Z,4.00
2018-02-27T16:42:41.458Z,9.00
2018-02-27T16:45:18.711Z,8.50
2018-02-27T16:48:22.121Z,10.00
2018-02-27T16:50:59.842Z,9.50
2018-02-27T16:56:30.456Z,9.00
2018-02-27T16:59:06.266Z,7.50
2018-02-27T17:01:40.108Z,8.50
2018-02-27T17:04:38.050Z,8.00
2018-02-27T17:07:22.896Z,9.00
2018-02-27T17:10:14.775Z,8.00
2018-02-27T17:12:49.047Z,8.00
2018-02-27T17:15:27.289Z,4.50
2018-02-27T17:18:00.245Z,8.00
2018-02-27T17:20:56.093Z,6.00
2018-02-27T17:23:31.800Z,7.50
2018-02-27T17:26:06.340Z,6.00
2018-02-27T17:28:45.388Z,7.00
2018-02-27T17:34:35.219Z,7.50
2018-02-27T17:37:20.734Z,7.00
2018-02-27T17:39:56.823Z,8.00
2018-02-27T17:42:28.945Z,9.00
2018-02-27T17:45:03.401Z,8.50
2018-02-27T17:47:40.201Z,6.00
2018-02-27T17:50:31.831Z,8.00
2018-02-27T17:53:19.763Z,6.00
2018-02-27T17:55:55.378Z,6.00
2018-02-27T17:58:29.524Z,7.00
2018-02-27T18:01:03.542Z,8.00
2018-02-27T18:03:39.210Z,7.50
2018-02-27T18:06:26.165Z,10.00
2018-02-27T18:11:49.169Z,8.00
2018-02-27T18:14:32.952Z,6.50
2018-02-27T18:17:06.063Z,8.00
2018-02-27T18:19:40.017Z,7.50
2018-02-27T18:22:12.793Z,10.00
2018-02-27T18:24:51.840Z,10.00
2018-02-27T18:27:27.997Z,10.00
2018-02-27T18:30:06.219Z,5.00
2018-02-27T18:32:39.721Z,5.00
2018-02-27T18:37:55.484Z,10.00
2018-02-27T18:40:28.378Z,8.50
2018-02-27T18:46:10.120Z,10.00
2018-02-27T18:48:50.093Z,7.50
2018-02-27T18:51:32.791Z,10.00
2018-02-27T18:54:09.683Z,8.50
2018-02-27T18:56:49.445Z,9.00
2018-02-27T18:59:40.961Z,9.00
2018-02-27T19:02:17.855Z,8.00
2018-02-27T19:04:52.282Z,8.50
2018-02-27T19:07:33.746Z,8.50
2018-02-27T19:10:17.103Z,9.50
2018-02-27T19:12:56.871Z,9.00
2018-02-27T19:15:43.359Z,10.00
2018-02-27T19:18:33.960Z,11.50
2018-02-27T19:21:06.372Z,8.00
2018-02-27T19:23:41.886Z,11.00
2018-02-27T19:26:15.199Z,13.00
2018-02-27T19:28:48.597Z,8.00
2018-02-27T19:44:37.388Z,14.00
2018-02-27T19:47:13.065Z,11.75
2018-02-27T19:49:56.544Z,12.00
2018-02-27T19:52:42.214Z,9.00
2018-02-27T19:55:20.757Z,9.00
2018-02-27T19:58:03.795Z,8.00
2018-02-27T20:00:41.571Z,8.00
2018-02-27T20:03:22.046Z,7.00
2018-02-27T20:05:57.626Z,11.50
2018-02-27T20:08:32.962Z,6.00
2018-02-27T20:11:05.739Z,9.50
2018-02-27T20:13:39.457Z,10.00
2018-02-27T20:16:15.025Z,11.00
2018-02-27T20:18:47.028Z,8.50
2018-02-27T20:21:31.100Z,9.50
2018-02-27T20:24:38.490Z,8.00
2018-02-27T20:29:51.369Z,8.00
2018-02-27T20:32:26.568Z,10.00
2018-02-27T20:35:00.230Z,14.00
2018-02-27T20:37:34.437Z,10.00
2018-02-27T20:40:11.061Z,10.00
2018-02-27T20:42:44.413Z,12.00
2018-02-27T20:45:27.308Z,10.00
2018-02-27T20:47:58.612Z,10.00
2018-02-27T20:50:40.486Z,9.50
2018-02-27T20:53:23.001Z,10.00
2018-02-27T20:56:00.001Z,10.00
2018-02-27T20:58:39.190Z,8.50
2018-02-27T21:01:16.709Z,11.00
2018-02-27T21:03:51.201Z,8.00
2018-02-27T21:06:24.305Z,8.00
2018-02-27T21:08:58.852Z,8.00
2018-02-27T21:11:36.459Z,5.50
2018-02-27T21:14:10.365Z,6.00
2018-02-27T21:16:46.972Z,8.00
2018-02-27T21:19:30.440Z,10.00
2018-02-27T21:22:05.324Z,7.50
2018-02-27T21:24:38.778Z,8.00
2018-02-27T21:27:18.420Z,9.50
2018-02-27T21:29:53.515Z,7.00
2018-02-27T21:32:31.846Z,8.50
2018-02-27T21:35:06.273Z,10.00
2018-02-27T21:37:53.889Z,10.00
2018-02-27T21:40:31.102Z,10.00
2018-02-27T21:43:05.203Z,10.00
2018-02-27T21:45:39.471Z,10.00
2018-02-27T21:48:11.928Z,10.00
2018-02-27T21:52:07.702Z,10.00
2018-02-27T21:54:45.111Z,12.00
2018-02-27T21:57:18.130Z,11.00
2018-02-27T21:59:51.339Z,9.50
2018-02-27T22:02:23.438Z,11.00
2018-02-27T22:05:03.151Z,11.00
2018-02-27T22:07:43.816Z,9.50
2018-02-27T22:10:14.766Z,12.00
2018-02-27T22:12:46.859Z,11.50
2018-02-27T22:15:25.447Z,10.50
2018-02-27T22:18:26.801Z,12.50
2018-02-27T22:21:06.555Z,10.50
2018-02-27T22:23:40.605Z,11.00
2018-02-27T22:26:12.918Z,11.50
2018-02-27T22:28:49.891Z,13.50
2018-02-27T22:31:31.490Z,14.50
2018-02-27T22:34:06.185Z,12.00
2018-02-27T22:36:38.779Z,11.00
2018-02-27T22:39:11.430Z,14.00
2018-02-27T22:41:42.687Z,12.00
2018-02-27T22:44:15.039Z,11.00
2018-02-27T22:46:47.655Z,11.00
2018-02-27T22:55:21.889Z,11.50
2018-02-27T22:57:53.330Z,12.00
2018-02-27T23:00:33.757Z,16.00
2018-02-27T23:03:05.682Z,12.50
2018-02-27T23:05:37.575Z,14.00
2018-02-27T23:08:13.038Z,17.00
2018-02-27T23:10:58.941Z,15.50
2018-02-27T23:13:42.202Z,12.50
2018-02-27T23:16:14.705Z,18.50
2018-02-27T23:18:51.888Z,15.50
2018-02-27T23:25:44.133Z,15.50
2018-02-27T23:28:35.682Z,15.50
2018-02-27T23:31:20.573Z,13.50
2018-02-27T23:35:53.409Z,14.00
2018-02-27T23:38:28.456Z,13.50
2018-02-27T23:41:00.235Z,14.00
2018-02-27T23:46:35.195Z,16.00
2018-02-27T23:51:55.173Z,13.50
2018-02-27T23:54:27.411Z,18.50
2018-02-27T23:56:58.803Z,18.50
2018-02-27T23:59:36.460Z,16.00
